sensor_id;sensor_type;location;lat;lon;timestamp;P1;durP1;ratioP1;P2;durP2;ratioP2
77854;SDS011;67046;50.088;14.336;2023-04-16T00:00:08;9.50;;;7.30;;
77854;SDS011;67046;50.088;14.336;2023-04-16T00:01:00;8.60;;;7.10;;
77854;SDS011;67046;50.088;14.336;2023-04-16T00:01:37;9.60;;;7.00;;
77854;SDS011;67046;50.088;14.336;2023-04-16T00:02:09;8.40;;;7.40;;
77854;SDS011;67046;50.088;14.336;2023-04-16T00:02:41;8.00;;;7.10;;
77854;SDS011;67046;50.088;14.336;2023-04-16T00:03:13;9.40;;;7.40;;
77854;SDS011;67046;50.088;14.336;2023-04-16T00:03:45;9.60;;;7.70;;
77854;SDS011;67046;50.088;14.336;2023-04-16T00:04:17;9.40;;;8.10;;
77854;SDS011;67046;50.088;14.336;2023-04-16T00:04:49;9.30;;;7.30;;
77854;SDS011;67046;50.088;14.336;2023-04-16T00:05:21;8.60;;;7.20;;
77854;SDS011;67046;50.088;14.336;2023-04-16T00:05:53;8.40;;;7.00;;
77854;SDS011;67046;50.088;14.336;2023-04-16T00:06:28;9.40;;;8.00;;
77854;SDS011;67046;50.088;14.336;2023-04-16T00:07:00;9.30;;;7.00;;
77854;SDS011;67046;50.088;14.336;2023-04-16T00:07:32;8.00;;;6.60;;
77854;SDS011;67046;50.088;14.336;2023-04-16T00:08:04;8.90;;;7.70;;
77854;SDS011;67046;50.088;14.336;2023-04-16T00:08:36;8.30;;;7.00;;
77854;SDS011;67046;50.088;14.336;2023-04-16T00:09:08;7.60;;;6.50;;
77854;SDS011;67046;50.088;14.336;2023-04-16T00:09:41;9.00;;;7.10;;
77854;SDS011;67046;50.088;14.336;2023-04-16T00:10:12;8.20;;;6.70;;
77854;SDS011;67046;50.088;14.336;2023-04-16T00:10:44;8.70;;;7.20;;
77854;SDS011;67046;50.088;14.336;2023-04-16T00:11:16;8.70;;;7.10;;
77854;SDS011;67046;50.088;14.336;2023-04-16T00:11:49;9.40;;;7.40;;
77854;SDS011;67046;50.088;14.336;2023-04-16T00:12:22;7.70;;;6.90;;
77854;SDS011;67046;50.088;14.336;2023-04-16T00:12:55;7.70;;;6.90;;
77854;SDS011;67046;50.088;14.336;2023-04-16T00:13:26;9.70;;;6.80;;
77854;SDS011;67046;50.088;14.336;2023-04-16T00:13:58;7.90;;;6.60;;
77854;SDS011;67046;50.088;14.336;2023-04-16T00:14:30;9.70;;;7.30;;
77854;SDS011;67046;50.088;14.336;2023-04-16T00:15:02;9.10;;;7.20;;
77854;SDS011;67046;50.088;14.336;2023-04-16T00:15:34;6.80;;;6.10;;
77854;SDS011;67046;50.088;14.336;2023-04-16T00:16:06;8.80;;;6.80;;
77854;SDS011;67046;50.088;14.336;2023-04-16T00:16:38;10.20;;;7.90;;
77854;SDS011;67046;50.088;14.336;2023-04-16T00:17:10;9.20;;;7.40;;
77854;SDS011;67046;50.088;14.336;2023-04-16T00:17:42;8.50;;;7.20;;
77854;SDS011;67046;50.088;14.336;2023-04-16T00:18:14;8.30;;;7.20;;
77854;SDS011;67046;50.088;14.336;2023-04-16T00:18:46;8.40;;;7.00;;
77854;SDS011;67046;50.088;14.336;2023-04-16T00:19:18;9.30;;;7.90;;
77854;SDS011;67046;50.088;14.336;2023-04-16T00:19:50;9.10;;;7.20;;
77854;SDS011;67046;50.088;14.336;2023-04-16T00:20:22;8.50;;;6.90;;
77854;SDS011;67046;50.088;14.336;2023-04-16T00:20:54;9.20;;;7.90;;
77854;SDS011;67046;50.088;14.336;2023-04-16T00:21:26;10.50;;;7.60;;
77854;SDS011;67046;50.088;14.336;2023-04-16T00:21:58;9.40;;;7.50;;
77854;SDS011;67046;50.088;14.336;2023-04-16T00:22:30;9.00;;;7.40;;
77854;SDS011;67046;50.088;14.336;2023-04-16T00:23:02;10.10;;;7.00;;
77854;SDS011;67046;50.088;14.336;2023-04-16T00:23:34;8.40;;;7.40;;
77854;SDS011;67046;50.088;14.336;2023-04-16T00:24:05;8.60;;;7.10;;
77854;SDS011;67046;50.088;14.336;2023-04-16T00:24:37;9.50;;;7.40;;
77854;SDS011;67046;50.088;14.336;2023-04-16T00:25:09;9.20;;;7.00;;
77854;SDS011;67046;50.088;14.336;2023-04-16T00:25:41;7.70;;;6.90;;
77854;SDS011;67046;50.088;14.336;2023-04-16T00:26:13;8.60;;;7.20;;
77854;SDS011;67046;50.088;14.336;2023-04-16T00:26:46;8.30;;;6.60;;
77854;SDS011;67046;50.088;14.336;2023-04-16T00:27:18;8.10;;;7.10;;
77854;SDS011;67046;50.088;14.336;2023-04-16T00:28:22;8.20;;;6.30;;
77854;SDS011;67046;50.088;14.336;2023-04-16T00:28:54;8.00;;;6.60;;
77854;SDS011;67046;50.088;14.336;2023-04-16T00:29:26;9.10;;;7.00;;
77854;SDS011;67046;50.088;14.336;2023-04-16T00:29:59;9.40;;;7.10;;
77854;SDS011;67046;50.088;14.336;2023-04-16T00:30:31;8.70;;;7.60;;
77854;SDS011;67046;50.088;14.336;2023-04-16T00:31:03;9.00;;;7.70;;
77854;SDS011;67046;50.088;14.336;2023-04-16T00:31:35;9.70;;;7.80;;
77854;SDS011;67046;50.088;14.336;2023-04-16T00:32:07;9.00;;;7.60;;
77854;SDS011;67046;50.088;14.336;2023-04-16T00:32:39;8.70;;;7.50;;
77854;SDS011;67046;50.088;14.336;2023-04-16T00:33:10;9.20;;;7.90;;
77854;SDS011;67046;50.088;14.336;2023-04-16T00:33:42;7.90;;;7.00;;
77854;SDS011;67046;50.088;14.336;2023-04-16T00:34:14;8.50;;;7.60;;
77854;SDS011;67046;50.088;14.336;2023-04-16T00:34:46;9.80;;;7.90;;
77854;SDS011;67046;50.088;14.336;2023-04-16T00:35:18;9.30;;;8.10;;
77854;SDS011;67046;50.088;14.336;2023-04-16T00:35:50;9.60;;;8.00;;
77854;SDS011;67046;50.088;14.336;2023-04-16T00:36:23;9.10;;;8.10;;
77854;SDS011;67046;50.088;14.336;2023-04-16T00:36:56;8.50;;;7.60;;
77854;SDS011;67046;50.088;14.336;2023-04-16T00:37:28;9.30;;;7.30;;
77854;SDS011;67046;50.088;14.336;2023-04-16T00:38:01;8.70;;;7.20;;
77854;SDS011;67046;50.088;14.336;2023-04-16T00:38:32;11.10;;;8.60;;
77854;SDS011;67046;50.088;14.336;2023-04-16T00:39:05;10.00;;;8.40;;
77854;SDS011;67046;50.088;14.336;2023-04-16T00:39:37;9.80;;;7.90;;
77854;SDS011;67046;50.088;14.336;2023-04-16T00:40:09;12.20;;;8.00;;
77854;SDS011;67046;50.088;14.336;2023-04-16T00:40:41;11.50;;;8.30;;
77854;SDS011;67046;50.088;14.336;2023-04-16T00:41:13;8.80;;;7.70;;
77854;SDS011;67046;50.088;14.336;2023-04-16T00:41:45;11.00;;;8.70;;
77854;SDS011;67046;50.088;14.336;2023-04-16T00:42:18;11.30;;;8.80;;
77854;SDS011;67046;50.088;14.336;2023-04-16T00:42:50;10.60;;;8.00;;
77854;SDS011;67046;50.088;14.336;2023-04-16T00:43:22;9.90;;;8.10;;
77854;SDS011;67046;50.088;14.336;2023-04-16T00:43:55;10.60;;;8.70;;
77854;SDS011;67046;50.088;14.336;2023-04-16T00:44:27;9.70;;;8.10;;
77854;SDS011;67046;50.088;14.336;2023-04-16T00:45:00;11.70;;;8.80;;
77854;SDS011;67046;50.088;14.336;2023-04-16T00:45:32;11.30;;;8.80;;
77854;SDS011;67046;50.088;14.336;2023-04-16T00:46:05;10.20;;;8.00;;
77854;SDS011;67046;50.088;14.336;2023-04-16T00:46:37;9.80;;;8.20;;
77854;SDS011;67046;50.088;14.336;2023-04-16T00:47:42;10.60;;;7.90;;
77854;SDS011;67046;50.088;14.336;2023-04-16T00:48:14;9.80;;;8.50;;
77854;SDS011;67046;50.088;14.336;2023-04-16T00:48:46;11.70;;;9.20;;
77854;SDS011;67046;50.088;14.336;2023-04-16T00:49:19;10.10;;;8.30;;
77854;SDS011;67046;50.088;14.336;2023-04-16T00:49:51;11.70;;;9.20;;
77854;SDS011;67046;50.088;14.336;2023-04-16T00:50:23;11.50;;;8.10;;
77854;SDS011;67046;50.088;14.336;2023-04-16T00:50:55;10.20;;;8.70;;
77854;SDS011;67046;50.088;14.336;2023-04-16T00:51:27;10.10;;;8.30;;
77854;SDS011;67046;50.088;14.336;2023-04-16T00:52:00;12.30;;;9.10;;
77854;SDS011;67046;50.088;14.336;2023-04-16T00:52:33;10.60;;;8.70;;
77854;SDS011;67046;50.088;14.336;2023-04-16T00:53:05;10.30;;;8.60;;
77854;SDS011;67046;50.088;14.336;2023-04-16T00:53:38;12.70;;;8.80;;
77854;SDS011;67046;50.088;14.336;2023-04-16T00:54:10;10.90;;;8.70;;
77854;SDS011;67046;50.088;14.336;2023-04-16T00:54:42;11.90;;;8.90;;
77854;SDS011;67046;50.088;14.336;2023-04-16T00:55:14;10.10;;;8.30;;
77854;SDS011;67046;50.088;14.336;2023-04-16T00:55:49;9.90;;;7.70;;
77854;SDS011;67046;50.088;14.336;2023-04-16T00:56:21;11.30;;;8.30;;
77854;SDS011;67046;50.088;14.336;2023-04-16T00:56:55;9.90;;;8.80;;
77854;SDS011;67046;50.088;14.336;2023-04-16T00:57:29;10.70;;;8.20;;
77854;SDS011;67046;50.088;14.336;2023-04-16T00:58:01;9.70;;;8.40;;
77854;SDS011;67046;50.088;14.336;2023-04-16T00:58:37;9.80;;;8.00;;
77854;SDS011;67046;50.088;14.336;2023-04-16T00:59:09;11.30;;;8.00;;
77854;SDS011;67046;50.088;14.336;2023-04-16T00:59:42;11.10;;;8.30;;
77854;SDS011;67046;50.088;14.336;2023-04-16T01:00:14;12.40;;;9.20;;
77854;SDS011;67046;50.088;14.336;2023-04-16T01:00:46;11.40;;;9.00;;
77854;SDS011;67046;50.088;14.336;2023-04-16T01:01:18;9.80;;;8.40;;
77854;SDS011;67046;50.088;14.336;2023-04-16T01:01:50;10.60;;;9.30;;
77854;SDS011;67046;50.088;14.336;2023-04-16T01:02:22;10.20;;;9.10;;
77854;SDS011;67046;50.088;14.336;2023-04-16T01:02:55;10.30;;;8.30;;
77854;SDS011;67046;50.088;14.336;2023-04-16T01:03:37;10.10;;;8.20;;
77854;SDS011;67046;50.088;14.336;2023-04-16T01:04:11;9.70;;;8.20;;
77854;SDS011;67046;50.088;14.336;2023-04-16T01:04:43;12.50;;;8.90;;
77854;SDS011;67046;50.088;14.336;2023-04-16T01:05:15;9.80;;;8.30;;
77854;SDS011;67046;50.088;14.336;2023-04-16T01:05:47;10.40;;;8.10;;
77854;SDS011;67046;50.088;14.336;2023-04-16T01:06:21;10.90;;;9.00;;
77854;SDS011;67046;50.088;14.336;2023-04-16T01:06:53;10.00;;;8.70;;
77854;SDS011;67046;50.088;14.336;2023-04-16T01:07:25;9.50;;;8.40;;
77854;SDS011;67046;50.088;14.336;2023-04-16T01:07:58;12.40;;;9.10;;
77854;SDS011;67046;50.088;14.336;2023-04-16T01:08:31;11.50;;;8.90;;
77854;SDS011;67046;50.088;14.336;2023-04-16T01:09:04;11.60;;;8.10;;
77854;SDS011;67046;50.088;14.336;2023-04-16T01:09:36;11.60;;;8.50;;
77854;SDS011;67046;50.088;14.336;2023-04-16T01:10:08;10.80;;;9.30;;
77854;SDS011;67046;50.088;14.336;2023-04-16T01:10:40;10.80;;;8.10;;
77854;SDS011;67046;50.088;14.336;2023-04-16T01:11:12;10.90;;;8.70;;
77854;SDS011;67046;50.088;14.336;2023-04-16T01:11:45;9.80;;;8.00;;
77854;SDS011;67046;50.088;14.336;2023-04-16T01:12:17;9.50;;;7.60;;
77854;SDS011;67046;50.088;14.336;2023-04-16T01:12:49;8.90;;;7.50;;
77854;SDS011;67046;50.088;14.336;2023-04-16T01:13:21;9.70;;;8.20;;
77854;SDS011;67046;50.088;14.336;2023-04-16T01:13:53;10.40;;;8.00;;
77854;SDS011;67046;50.088;14.336;2023-04-16T01:14:25;9.60;;;8.30;;
77854;SDS011;67046;50.088;14.336;2023-04-16T01:14:57;9.60;;;7.70;;
77854;SDS011;67046;50.088;14.336;2023-04-16T01:15:29;8.80;;;7.70;;
77854;SDS011;67046;50.088;14.336;2023-04-16T01:16:01;11.20;;;8.20;;
77854;SDS011;67046;50.088;14.336;2023-04-16T01:16:33;10.20;;;7.70;;
77854;SDS011;67046;50.088;14.336;2023-04-16T01:17:05;10.30;;;8.70;;
77854;SDS011;67046;50.088;14.336;2023-04-16T01:17:37;9.40;;;7.90;;
77854;SDS011;67046;50.088;14.336;2023-04-16T01:18:13;9.60;;;8.30;;
77854;SDS011;67046;50.088;14.336;2023-04-16T01:18:48;10.70;;;8.60;;
77854;SDS011;67046;50.088;14.336;2023-04-16T01:19:20;10.00;;;8.20;;
77854;SDS011;67046;50.088;14.336;2023-04-16T01:19:52;10.40;;;8.50;;
77854;SDS011;67046;50.088;14.336;2023-04-16T01:20:23;10.50;;;8.20;;
77854;SDS011;67046;50.088;14.336;2023-04-16T01:20:56;10.80;;;8.70;;
77854;SDS011;67046;50.088;14.336;2023-04-16T01:21:27;11.10;;;8.40;;
77854;SDS011;67046;50.088;14.336;2023-04-16T01:21:59;9.40;;;8.00;;
77854;SDS011;67046;50.088;14.336;2023-04-16T01:22:31;10.80;;;8.80;;
77854;SDS011;67046;50.088;14.336;2023-04-16T01:23:03;9.10;;;8.10;;
77854;SDS011;67046;50.088;14.336;2023-04-16T01:23:35;11.30;;;9.20;;
77854;SDS011;67046;50.088;14.336;2023-04-16T01:24:07;10.60;;;8.70;;
77854;SDS011;67046;50.088;14.336;2023-04-16T01:24:39;10.50;;;8.40;;
77854;SDS011;67046;50.088;14.336;2023-04-16T01:25:14;10.50;;;8.10;;
77854;SDS011;67046;50.088;14.336;2023-04-16T01:25:46;14.70;;;8.60;;
77854;SDS011;67046;50.088;14.336;2023-04-16T01:26:18;9.20;;;8.10;;
77854;SDS011;67046;50.088;14.336;2023-04-16T01:26:50;8.80;;;7.80;;
77854;SDS011;67046;50.088;14.336;2023-04-16T01:27:23;10.80;;;8.30;;
77854;SDS011;67046;50.088;14.336;2023-04-16T01:27:54;9.20;;;6.90;;
77854;SDS011;67046;50.088;14.336;2023-04-16T01:28:27;9.30;;;7.40;;
77854;SDS011;67046;50.088;14.336;2023-04-16T01:28:59;10.90;;;8.00;;
77854;SDS011;67046;50.088;14.336;2023-04-16T01:29:31;8.80;;;7.10;;
77854;SDS011;67046;50.088;14.336;2023-04-16T01:30:03;9.10;;;7.10;;
77854;SDS011;67046;50.088;14.336;2023-04-16T01:30:36;9.90;;;8.00;;
77854;SDS011;67046;50.088;14.336;2023-04-16T01:31:08;9.30;;;7.60;;
77854;SDS011;67046;50.088;14.336;2023-04-16T01:31:40;9.20;;;8.00;;
77854;SDS011;67046;50.088;14.336;2023-04-16T01:32:12;8.50;;;7.30;;
77854;SDS011;67046;50.088;14.336;2023-04-16T01:32:44;8.70;;;7.40;;
77854;SDS011;67046;50.088;14.336;2023-04-16T01:33:16;9.60;;;7.10;;
77854;SDS011;67046;50.088;14.336;2023-04-16T01:33:49;11.10;;;7.90;;
77854;SDS011;67046;50.088;14.336;2023-04-16T01:34:21;8.40;;;7.10;;
77854;SDS011;67046;50.088;14.336;2023-04-16T01:34:53;8.90;;;7.60;;
77854;SDS011;67046;50.088;14.336;2023-04-16T01:35:25;9.00;;;7.90;;
77854;SDS011;67046;50.088;14.336;2023-04-16T01:35:57;8.90;;;7.90;;
77854;SDS011;67046;50.088;14.336;2023-04-16T01:36:29;10.50;;;7.90;;
77854;SDS011;67046;50.088;14.336;2023-04-16T01:37:02;9.80;;;8.00;;
77854;SDS011;67046;50.088;14.336;2023-04-16T01:37:34;9.50;;;7.80;;
77854;SDS011;67046;50.088;14.336;2023-04-16T01:38:07;9.70;;;7.90;;
77854;SDS011;67046;50.088;14.336;2023-04-16T01:38:40;9.70;;;8.10;;
77854;SDS011;67046;50.088;14.336;2023-04-16T01:39:12;9.30;;;8.20;;
77854;SDS011;67046;50.088;14.336;2023-04-16T01:39:46;10.10;;;8.10;;
77854;SDS011;67046;50.088;14.336;2023-04-16T01:40:18;9.50;;;8.30;;
77854;SDS011;67046;50.088;14.336;2023-04-16T01:41:26;9.40;;;7.50;;
77854;SDS011;67046;50.088;14.336;2023-04-16T01:41:57;8.80;;;7.50;;
77854;SDS011;67046;50.088;14.336;2023-04-16T01:42:29;8.80;;;7.90;;
77854;SDS011;67046;50.088;14.336;2023-04-16T01:43:02;9.10;;;7.00;;
77854;SDS011;67046;50.088;14.336;2023-04-16T01:43:34;8.40;;;7.20;;
77854;SDS011;67046;50.088;14.336;2023-04-16T01:44:06;9.40;;;7.10;;
77854;SDS011;67046;50.088;14.336;2023-04-16T01:44:38;9.50;;;7.50;;
77854;SDS011;67046;50.088;14.336;2023-04-16T01:45:10;9.90;;;7.40;;
77854;SDS011;67046;50.088;14.336;2023-04-16T01:45:42;8.60;;;7.50;;
77854;SDS011;67046;50.088;14.336;2023-04-16T01:46:17;8.80;;;7.00;;
77854;SDS011;67046;50.088;14.336;2023-04-16T01:46:59;8.50;;;6.80;;
77854;SDS011;67046;50.088;14.336;2023-04-16T01:47:31;8.60;;;6.90;;
77854;SDS011;67046;50.088;14.336;2023-04-16T01:48:03;8.90;;;7.50;;
77854;SDS011;67046;50.088;14.336;2023-04-16T01:49:07;8.20;;;6.70;;
77854;SDS011;67046;50.088;14.336;2023-04-16T01:49:39;8.40;;;6.60;;
77854;SDS011;67046;50.088;14.336;2023-04-16T01:50:12;8.70;;;7.00;;
77854;SDS011;67046;50.088;14.336;2023-04-16T01:50:44;9.90;;;7.20;;
77854;SDS011;67046;50.088;14.336;2023-04-16T01:51:16;8.30;;;6.80;;
77854;SDS011;67046;50.088;14.336;2023-04-16T01:51:48;8.00;;;7.10;;
77854;SDS011;67046;50.088;14.336;2023-04-16T01:52:20;9.00;;;7.40;;
77854;SDS011;67046;50.088;14.336;2023-04-16T01:52:52;9.00;;;7.80;;
77854;SDS011;67046;50.088;14.336;2023-04-16T01:53:24;9.90;;;7.70;;
77854;SDS011;67046;50.088;14.336;2023-04-16T01:53:56;9.00;;;7.70;;
77854;SDS011;67046;50.088;14.336;2023-04-16T01:54:28;9.80;;;8.30;;
77854;SDS011;67046;50.088;14.336;2023-04-16T01:55:33;9.50;;;7.70;;
77854;SDS011;67046;50.088;14.336;2023-04-16T01:56:05;9.30;;;7.70;;
77854;SDS011;67046;50.088;14.336;2023-04-16T01:57:09;9.80;;;7.20;;
77854;SDS011;67046;50.088;14.336;2023-04-16T01:57:41;10.70;;;7.90;;
77854;SDS011;67046;50.088;14.336;2023-04-16T01:58:13;9.60;;;7.60;;
77854;SDS011;67046;50.088;14.336;2023-04-16T01:58:45;11.30;;;8.20;;
77854;SDS011;67046;50.088;14.336;2023-04-16T01:59:18;9.10;;;7.50;;
77854;SDS011;67046;50.088;14.336;2023-04-16T01:59:50;10.30;;;7.60;;
77854;SDS011;67046;50.088;14.336;2023-04-16T02:00:22;10.70;;;8.00;;
77854;SDS011;67046;50.088;14.336;2023-04-16T02:00:54;9.70;;;8.00;;
77854;SDS011;67046;50.088;14.336;2023-04-16T02:01:26;11.20;;;7.50;;
77854;SDS011;67046;50.088;14.336;2023-04-16T02:02:00;9.90;;;8.20;;
77854;SDS011;67046;50.088;14.336;2023-04-16T02:02:37;9.50;;;6.90;;
77854;SDS011;67046;50.088;14.336;2023-04-16T02:03:09;9.10;;;7.40;;
77854;SDS011;67046;50.088;14.336;2023-04-16T02:03:41;9.40;;;7.00;;
77854;SDS011;67046;50.088;14.336;2023-04-16T02:04:13;8.60;;;6.60;;
77854;SDS011;67046;50.088;14.336;2023-04-16T02:04:46;8.90;;;7.00;;
77854;SDS011;67046;50.088;14.336;2023-04-16T02:05:18;8.60;;;6.90;;
77854;SDS011;67046;50.088;14.336;2023-04-16T02:05:50;7.90;;;6.80;;
77854;SDS011;67046;50.088;14.336;2023-04-16T02:06:22;7.50;;;6.10;;
77854;SDS011;67046;50.088;14.336;2023-04-16T02:06:54;7.80;;;6.70;;
77854;SDS011;67046;50.088;14.336;2023-04-16T02:07:26;8.20;;;6.60;;
77854;SDS011;67046;50.088;14.336;2023-04-16T02:07:58;8.20;;;6.50;;
77854;SDS011;67046;50.088;14.336;2023-04-16T02:08:30;8.70;;;7.10;;
77854;SDS011;67046;50.088;14.336;2023-04-16T02:09:35;7.50;;;6.30;;
77854;SDS011;67046;50.088;14.336;2023-04-16T02:10:11;9.10;;;6.70;;
77854;SDS011;67046;50.088;14.336;2023-04-16T02:10:46;8.40;;;6.80;;
77854;SDS011;67046;50.088;14.336;2023-04-16T02:11:19;8.30;;;6.50;;
77854;SDS011;67046;50.088;14.336;2023-04-16T02:11:51;9.10;;;7.40;;
77854;SDS011;67046;50.088;14.336;2023-04-16T02:12:23;8.70;;;7.30;;
77854;SDS011;67046;50.088;14.336;2023-04-16T02:12:56;8.90;;;7.20;;
77854;SDS011;67046;50.088;14.336;2023-04-16T02:13:27;8.80;;;6.80;;
77854;SDS011;67046;50.088;14.336;2023-04-16T02:14:00;8.70;;;7.00;;
77854;SDS011;67046;50.088;14.336;2023-04-16T02:14:32;7.80;;;6.90;;
77854;SDS011;67046;50.088;14.336;2023-04-16T02:15:04;8.10;;;6.30;;
77854;SDS011;67046;50.088;14.336;2023-04-16T02:15:37;8.30;;;7.10;;
77854;SDS011;67046;50.088;14.336;2023-04-16T02:16:08;7.90;;;7.00;;
77854;SDS011;67046;50.088;14.336;2023-04-16T02:16:41;10.30;;;7.20;;
77854;SDS011;67046;50.088;14.336;2023-04-16T02:17:13;10.10;;;7.60;;
77854;SDS011;67046;50.088;14.336;2023-04-16T02:17:45;7.60;;;6.80;;
77854;SDS011;67046;50.088;14.336;2023-04-16T02:18:19;10.50;;;7.10;;
77854;SDS011;67046;50.088;14.336;2023-04-16T02:18:51;8.30;;;6.60;;
77854;SDS011;67046;50.088;14.336;2023-04-16T02:19:23;8.90;;;6.80;;
77854;SDS011;67046;50.088;14.336;2023-04-16T02:19:55;8.00;;;6.50;;
77854;SDS011;67046;50.088;14.336;2023-04-16T02:20:27;8.30;;;6.70;;
77854;SDS011;67046;50.088;14.336;2023-04-16T02:20:59;8.30;;;6.70;;
77854;SDS011;67046;50.088;14.336;2023-04-16T02:21:31;7.80;;;6.80;;
77854;SDS011;67046;50.088;14.336;2023-04-16T02:22:03;8.20;;;7.20;;
77854;SDS011;67046;50.088;14.336;2023-04-16T02:22:35;7.70;;;6.80;;
77854;SDS011;67046;50.088;14.336;2023-04-16T02:23:07;8.20;;;7.00;;
77854;SDS011;67046;50.088;14.336;2023-04-16T02:23:39;8.80;;;7.40;;
77854;SDS011;67046;50.088;14.336;2023-04-16T02:24:11;8.50;;;7.40;;
77854;SDS011;67046;50.088;14.336;2023-04-16T02:24:43;8.20;;;6.90;;
77854;SDS011;67046;50.088;14.336;2023-04-16T02:25:15;8.70;;;7.30;;
77854;SDS011;67046;50.088;14.336;2023-04-16T02:25:47;8.10;;;7.00;;
77854;SDS011;67046;50.088;14.336;2023-04-16T02:26:19;8.40;;;6.90;;
77854;SDS011;67046;50.088;14.336;2023-04-16T02:26:51;8.30;;;7.30;;
77854;SDS011;67046;50.088;14.336;2023-04-16T02:27:55;7.10;;;6.10;;
77854;SDS011;67046;50.088;14.336;2023-04-16T02:28:27;7.80;;;6.90;;
77854;SDS011;67046;50.088;14.336;2023-04-16T02:28:59;8.70;;;6.70;;
77854;SDS011;67046;50.088;14.336;2023-04-16T02:30:03;8.90;;;6.60;;
77854;SDS011;67046;50.088;14.336;2023-04-16T02:30:36;8.40;;;7.20;;
77854;SDS011;67046;50.088;14.336;2023-04-16T02:31:09;10.00;;;7.40;;
77854;SDS011;67046;50.088;14.336;2023-04-16T02:31:41;9.80;;;7.60;;
77854;SDS011;67046;50.088;14.336;2023-04-16T02:32:13;8.20;;;7.30;;
77854;SDS011;67046;50.088;14.336;2023-04-16T02:32:45;7.80;;;7.00;;
77854;SDS011;67046;50.088;14.336;2023-04-16T02:33:17;8.60;;;7.40;;
77854;SDS011;67046;50.088;14.336;2023-04-16T02:33:49;8.60;;;7.10;;
77854;SDS011;67046;50.088;14.336;2023-04-16T02:34:21;8.60;;;7.70;;
77854;SDS011;67046;50.088;14.336;2023-04-16T02:34:53;9.10;;;7.20;;
77854;SDS011;67046;50.088;14.336;2023-04-16T02:35:57;8.20;;;6.80;;
77854;SDS011;67046;50.088;14.336;2023-04-16T02:36:29;8.80;;;7.00;;
77854;SDS011;67046;50.088;14.336;2023-04-16T02:37:02;9.50;;;7.20;;
77854;SDS011;67046;50.088;14.336;2023-04-16T02:37:34;8.40;;;6.90;;
77854;SDS011;67046;50.088;14.336;2023-04-16T02:38:06;8.10;;;6.90;;
77854;SDS011;67046;50.088;14.336;2023-04-16T02:38:39;7.40;;;6.50;;
77854;SDS011;67046;50.088;14.336;2023-04-16T02:39:11;7.80;;;6.60;;
77854;SDS011;67046;50.088;14.336;2023-04-16T02:39:43;8.00;;;7.00;;
77854;SDS011;67046;50.088;14.336;2023-04-16T02:40:15;7.80;;;6.60;;
77854;SDS011;67046;50.088;14.336;2023-04-16T02:40:47;9.40;;;6.50;;
77854;SDS011;67046;50.088;14.336;2023-04-16T02:41:19;9.20;;;7.30;;
77854;SDS011;67046;50.088;14.336;2023-04-16T02:41:51;8.30;;;6.90;;
77854;SDS011;67046;50.088;14.336;2023-04-16T02:42:23;9.00;;;7.10;;
77854;SDS011;67046;50.088;14.336;2023-04-16T02:42:55;7.80;;;7.00;;
77854;SDS011;67046;50.088;14.336;2023-04-16T02:43:59;7.80;;;6.40;;
77854;SDS011;67046;50.088;14.336;2023-04-16T02:44:31;8.50;;;7.00;;
77854;SDS011;67046;50.088;14.336;2023-04-16T02:45:03;7.60;;;6.20;;
77854;SDS011;67046;50.088;14.336;2023-04-16T02:45:36;7.00;;;6.30;;
77854;SDS011;67046;50.088;14.336;2023-04-16T02:46:08;9.80;;;7.40;;
77854;SDS011;67046;50.088;14.336;2023-04-16T02:46:40;9.60;;;7.70;;
77854;SDS011;67046;50.088;14.336;2023-04-16T02:47:11;8.10;;;7.10;;
77854;SDS011;67046;50.088;14.336;2023-04-16T02:47:43;8.50;;;6.90;;
77854;SDS011;67046;50.088;14.336;2023-04-16T02:48:48;8.60;;;6.70;;
77854;SDS011;67046;50.088;14.336;2023-04-16T02:49:20;9.00;;;7.30;;
77854;SDS011;67046;50.088;14.336;2023-04-16T02:49:51;10.50;;;7.10;;
77854;SDS011;67046;50.088;14.336;2023-04-16T02:50:23;8.00;;;7.20;;
77854;SDS011;67046;50.088;14.336;2023-04-16T02:50:55;9.20;;;7.30;;
77854;SDS011;67046;50.088;14.336;2023-04-16T02:51:27;11.10;;;8.20;;
77854;SDS011;67046;50.088;14.336;2023-04-16T02:51:59;9.60;;;7.60;;
77854;SDS011;67046;50.088;14.336;2023-04-16T02:52:31;8.70;;;7.50;;
77854;SDS011;67046;50.088;14.336;2023-04-16T02:53:04;9.20;;;7.20;;
77854;SDS011;67046;50.088;14.336;2023-04-16T02:53:38;9.70;;;7.70;;
77854;SDS011;67046;50.088;14.336;2023-04-16T02:54:10;8.50;;;7.60;;
77854;SDS011;67046;50.088;14.336;2023-04-16T02:54:42;9.90;;;8.00;;
77854;SDS011;67046;50.088;14.336;2023-04-16T02:55:14;8.00;;;6.80;;
77854;SDS011;67046;50.088;14.336;2023-04-16T02:55:50;8.80;;;7.20;;
77854;SDS011;67046;50.088;14.336;2023-04-16T02:56:25;7.20;;;6.40;;
77854;SDS011;67046;50.088;14.336;2023-04-16T02:56:57;9.80;;;7.60;;
77854;SDS011;67046;50.088;14.336;2023-04-16T02:57:29;10.60;;;7.40;;
77854;SDS011;67046;50.088;14.336;2023-04-16T02:58:01;8.40;;;7.30;;
77854;SDS011;67046;50.088;14.336;2023-04-16T02:58:33;10.00;;;7.50;;
77854;SDS011;67046;50.088;14.336;2023-04-16T02:59:05;8.70;;;7.40;;
77854;SDS011;67046;50.088;14.336;2023-04-16T02:59:36;8.10;;;7.20;;
77854;SDS011;67046;50.088;14.336;2023-04-16T03:00:09;9.70;;;7.60;;
77854;SDS011;67046;50.088;14.336;2023-04-16T03:00:41;9.50;;;7.70;;
77854;SDS011;67046;50.088;14.336;2023-04-16T03:01:13;8.70;;;7.80;;
77854;SDS011;67046;50.088;14.336;2023-04-16T03:01:44;8.90;;;7.10;;
77854;SDS011;67046;50.088;14.336;2023-04-16T03:02:16;9.30;;;7.70;;
77854;SDS011;67046;50.088;14.336;2023-04-16T03:02:48;9.80;;;7.70;;
77854;SDS011;67046;50.088;14.336;2023-04-16T03:03:20;9.00;;;7.60;;
77854;SDS011;67046;50.088;14.336;2023-04-16T03:03:52;8.60;;;7.40;;
77854;SDS011;67046;50.088;14.336;2023-04-16T03:04:24;10.20;;;8.00;;
77854;SDS011;67046;50.088;14.336;2023-04-16T03:04:55;9.90;;;7.20;;
77854;SDS011;67046;50.088;14.336;2023-04-16T03:05:27;10.60;;;8.50;;
77854;SDS011;67046;50.088;14.336;2023-04-16T03:05:59;9.60;;;8.00;;
77854;SDS011;67046;50.088;14.336;2023-04-16T03:06:31;9.90;;;7.80;;
77854;SDS011;67046;50.088;14.336;2023-04-16T03:07:03;9.80;;;8.00;;
77854;SDS011;67046;50.088;14.336;2023-04-16T03:07:35;8.60;;;7.30;;
77854;SDS011;67046;50.088;14.336;2023-04-16T03:08:09;9.90;;;7.70;;
77854;SDS011;67046;50.088;14.336;2023-04-16T03:08:41;9.90;;;7.20;;
77854;SDS011;67046;50.088;14.336;2023-04-16T03:09:13;9.00;;;7.20;;
77854;SDS011;67046;50.088;14.336;2023-04-16T03:09:45;7.90;;;7.00;;
77854;SDS011;67046;50.088;14.336;2023-04-16T03:10:17;9.00;;;7.60;;
77854;SDS011;67046;50.088;14.336;2023-04-16T03:10:49;8.90;;;7.00;;
77854;SDS011;67046;50.088;14.336;2023-04-16T03:11:21;8.50;;;7.30;;
77854;SDS011;67046;50.088;14.336;2023-04-16T03:11:54;8.10;;;7.10;;
77854;SDS011;67046;50.088;14.336;2023-04-16T03:12:26;9.30;;;7.40;;
77854;SDS011;67046;50.088;14.336;2023-04-16T03:12:58;10.90;;;8.10;;
77854;SDS011;67046;50.088;14.336;2023-04-16T03:13:30;9.00;;;7.40;;
77854;SDS011;67046;50.088;14.336;2023-04-16T03:14:02;8.50;;;7.20;;
77854;SDS011;67046;50.088;14.336;2023-04-16T03:14:34;9.40;;;7.40;;
77854;SDS011;67046;50.088;14.336;2023-04-16T03:15:06;8.20;;;7.20;;
77854;SDS011;67046;50.088;14.336;2023-04-16T03:15:39;9.60;;;7.80;;
77854;SDS011;67046;50.088;14.336;2023-04-16T03:16:11;8.70;;;7.10;;
77854;SDS011;67046;50.088;14.336;2023-04-16T03:16:43;9.50;;;8.10;;
77854;SDS011;67046;50.088;14.336;2023-04-16T03:17:15;9.90;;;8.30;;
77854;SDS011;67046;50.088;14.336;2023-04-16T03:17:46;9.80;;;8.00;;